Flugplatz Pennewitz

Für EDOS sind keine METAR/TAF Berichte vorhanden.
Es werden die Flugwettermeldungen vom Flugplatz Erfurt in 35 km Entfernung angezeigt.

Bericht für EDDE

vom 31.05. um 08:20 UTC

Wind 7 kt aus 40°

Sichtweite 10 km oder mehr

gering bewölkt in 2300 ft

Temperatur 12.0°C

Taupunkt 5.0°C

Luftfeuchtigkeit 62%

Luftdruck 1023 hPa

keine wesentliche Wetteränderung innerhalb den nächsten 2 Stunden zu erwarten

EDDE 310820Z 04007KT 340V070 9999 FEW023 12/05 Q1023 NOSIG

Prognose für EDDE

vom 31.05. um 05:00 UTC

Zwischen 06:00 UTC und 18:00 UTC

Wind 8 kt aus 40°

Sichtweite 10 km oder mehr

keine signifikanten Wettererscheinungen

keine Wolken


Zwischen 18:00 und 20:00 UTC übergehend zu

variable Windrichtung mit 3 kt

Sichtweite 10 km oder mehr

keine signifikanten Wettererscheinungen

keine Wolken

TAF EDDE 310500Z 3106/0106 04008KT CAVOK BECMG 3118/3120 VRB03KT
Impressum